createdAt,value
2022-10-03T00:01:38.400Z,5.00
2022-10-03T00:04:20.530Z,4.63
2022-10-03T00:07:03.098Z,4.80
2022-10-03T00:09:43.882Z,4.93
2022-10-03T00:12:29.444Z,5.00
2022-10-03T00:15:09.153Z,5.10
2022-10-03T00:18:04.883Z,7.03
2022-10-03T00:20:41.279Z,10.20
2022-10-03T00:23:20.503Z,9.80
2022-10-03T00:26:28.415Z,13.00
2022-10-03T00:29:29.727Z,14.47
2022-10-03T00:32:11.454Z,11.80
2022-10-03T00:35:02.521Z,9.97
2022-10-03T00:38:08.346Z,9.43
2022-10-03T00:40:56.472Z,8.63
2022-10-03T00:43:26.486Z,7.90
2022-10-03T00:46:05.327Z,7.87
2022-10-03T00:48:49.829Z,8.43
2022-10-03T00:51:35.028Z,6.23
2022-10-03T00:54:20.494Z,7.10
2022-10-03T00:57:08.076Z,5.80
2022-10-03T01:00:01.992Z,5.97
2022-10-03T01:02:47.986Z,5.43
2022-10-03T01:05:55.729Z,4.97
2022-10-03T01:08:35.210Z,4.50
2022-10-03T01:11:26.699Z,4.70
2022-10-03T01:14:18.304Z,5.10
2022-10-03T01:17:10.672Z,4.63
2022-10-03T01:20:28.681Z,5.27
2022-10-03T01:23:12.620Z,5.13
2022-10-03T01:25:52.583Z,5.97
2022-10-03T01:29:07.372Z,5.33
2022-10-03T01:31:38.625Z,5.93
2022-10-03T01:34:20.870Z,5.20
2022-10-03T01:36:54.362Z,5.30
2022-10-03T01:39:34.594Z,4.80
2022-10-03T01:42:14.394Z,4.47
2022-10-03T01:44:43.863Z,4.60
2022-10-03T01:47:29.465Z,5.87
2022-10-03T01:50:19.627Z,5.93
2022-10-03T01:52:53.930Z,6.80
2022-10-03T01:55:42.410Z,6.30
2022-10-03T01:58:19.326Z,6.43
2022-10-03T02:00:54.527Z,6.90
2022-10-03T02:03:27.675Z,5.80
2022-10-03T02:06:09.877Z,6.67
2022-10-03T02:09:00.878Z,6.10
2022-10-03T02:11:50.854Z,6.30
2022-10-03T02:14:22.145Z,6.30
2022-10-03T02:17:13.038Z,7.20
2022-10-03T02:19:57.260Z,5.13
2022-10-03T02:22:44.765Z,6.30
2022-10-03T02:25:25.991Z,6.03
2022-10-03T02:28:24.220Z,6.00
2022-10-03T02:31:35.794Z,7.00
2022-10-03T02:34:30.345Z,7.83
2022-10-03T02:37:18.370Z,6.93
2022-10-03T02:40:13.086Z,6.07
2022-10-03T02:43:04.892Z,6.50
2022-10-03T02:45:46.724Z,6.70
2022-10-03T02:48:42.930Z,7.07
2022-10-03T02:51:21.553Z,6.67
2022-10-03T02:54:36.066Z,7.50
2022-10-03T02:57:05.525Z,6.73
2022-10-03T02:59:43.645Z,5.50
2022-10-03T03:02:47.328Z,6.17
2022-10-03T03:05:32.309Z,6.37
2022-10-03T03:08:24.710Z,7.03
2022-10-03T03:11:25.284Z,7.40
2022-10-03T03:14:03.951Z,8.47
2022-10-03T03:16:57.149Z,7.10
2022-10-03T03:20:01.811Z,5.97
2022-10-03T03:22:43.603Z,8.27
2022-10-03T03:25:37.531Z,6.77
2022-10-03T03:28:12.099Z,5.93
2022-10-03T03:31:09.527Z,7.50
2022-10-03T03:33:44.853Z,6.70
2022-10-03T03:36:41.359Z,8.10
2022-10-03T03:39:37.655Z,7.87
2022-10-03T03:42:40.210Z,7.90
2022-10-03T03:45:32.186Z,7.10
2022-10-03T03:48:29.761Z,6.70
2022-10-03T03:51:22.719Z,7.90
2022-10-03T03:54:19.575Z,6.43
2022-10-03T03:57:15.653Z,6.53
2022-10-03T04:00:06.023Z,5.80
2022-10-03T04:02:32.715Z,6.23
2022-10-03T04:05:18.195Z,7.00
2022-10-03T04:08:17.637Z,5.53
2022-10-03T04:11:11.864Z,6.43
2022-10-03T04:14:10.258Z,5.17
2022-10-03T04:17:26.712Z,6.37
2022-10-03T04:20:18.974Z,5.03
2022-10-03T04:23:21.423Z,6.87
2022-10-03T04:26:21.411Z,5.40
2022-10-03T04:28:50.790Z,5.13
2022-10-03T04:31:46.035Z,5.03
2022-10-03T04:34:28.235Z,5.87
2022-10-03T04:37:13.719Z,5.10
2022-10-03T04:40:04.642Z,5.23
2022-10-03T04:42:57.115Z,5.07
2022-10-03T04:45:39.143Z,5.30
2022-10-03T04:48:38.856Z,6.30
2022-10-03T04:51:33.946Z,6.60
2022-10-03T04:54:44.496Z,6.03
2022-10-03T04:57:22.899Z,5.37
2022-10-03T05:00:23.818Z,5.37
2022-10-03T05:02:57.884Z,5.80
2022-10-03T05:05:43.469Z,5.60
2022-10-03T05:08:42.684Z,5.73
2022-10-03T05:11:24.568Z,5.67
2022-10-03T05:14:18.288Z,6.47
2022-10-03T05:16:51.115Z,6.47
2022-10-03T05:19:51.669Z,7.30
2022-10-03T05:22:41.242Z,5.33
2022-10-03T05:25:29.132Z,6.00
2022-10-03T05:28:12.378Z,6.50
2022-10-03T05:30:53.350Z,6.03
2022-10-03T05:33:40.686Z,5.87
2022-10-03T05:36:20.843Z,6.30
2022-10-03T05:39:12.185Z,6.37
2022-10-03T05:41:43.946Z,5.43
2022-10-03T05:44:17.600Z,5.17
2022-10-03T05:47:30.297Z,5.77
2022-10-03T05:50:10.998Z,5.40
2022-10-03T05:52:47.623Z,4.80
2022-10-03T05:55:20.069Z,5.60
2022-10-03T05:57:54.562Z,6.17
2022-10-03T06:00:41.997Z,6.67
2022-10-03T06:03:29.078Z,6.10
2022-10-03T06:06:11.482Z,3.57
2022-10-03T06:08:41.821Z,3.00
2022-10-03T06:11:35.992Z,5.30
2022-10-03T06:14:20.548Z,5.70
2022-10-03T06:17:28.440Z,6.10
2022-10-03T06:20:19.129Z,6.80
2022-10-03T06:23:13.532Z,40.87
2022-10-03T06:25:57.684Z,16.20
2022-10-03T06:29:01.466Z,14.70
2022-10-03T06:32:01.650Z,6.83
2022-10-03T06:34:55.104Z,6.57
2022-10-03T06:37:33.432Z,5.27
2022-10-03T06:40:18.307Z,4.57
2022-10-03T06:43:03.582Z,4.40
2022-10-03T06:45:59.609Z,4.07
2022-10-03T06:48:43.974Z,4.50
2022-10-03T06:51:39.101Z,6.57
2022-10-03T06:54:38.200Z,6.00
2022-10-03T06:57:17.221Z,5.47
2022-10-03T07:00:03.243Z,7.57
2022-10-03T07:02:42.098Z,11.20
2022-10-03T07:05:26.773Z,9.70
2022-10-03T07:08:21.595Z,12.50
2022-10-03T07:11:12.991Z,10.67
2022-10-03T07:14:12.085Z,14.90
2022-10-03T07:16:47.490Z,14.43
2022-10-03T07:23:28.203Z,10.77
2022-10-03T07:26:32.982Z,11.60
2022-10-03T07:29:14.980Z,12.57
2022-10-03T07:31:50.675Z,12.10
2022-10-03T07:34:22.959Z,15.77
2022-10-03T07:37:26.534Z,10.83
2022-10-03T07:40:16.777Z,10.57
2022-10-03T07:43:05.860Z,10.07
2022-10-03T07:45:34.778Z,11.17
2022-10-03T07:48:22.290Z,12.53
2022-10-03T07:50:53.298Z,8.57
2022-10-03T07:53:42.079Z,8.33
2022-10-03T07:56:27.618Z,10.27
2022-10-03T07:59:25.007Z,13.77
2022-10-03T08:02:27.828Z,11.43
2022-10-03T08:05:20.136Z,11.03
2022-10-03T08:08:05.208Z,11.13
2022-10-03T08:10:52.941Z,11.20
2022-10-03T08:13:50.850Z,11.00
2022-10-03T08:16:36.265Z,11.17
2022-10-03T08:19:10.374Z,10.60
2022-10-03T08:22:18.981Z,9.13
2022-10-03T08:24:45.556Z,9.30
2022-10-03T08:27:45.090Z,10.43
2022-10-03T08:30:20.687Z,10.57
2022-10-03T08:33:28.451Z,8.40
2022-10-03T08:36:10.829Z,9.30
2022-10-03T08:39:09.935Z,8.03
2022-10-03T08:42:18.744Z,7.27
2022-10-03T08:45:00.483Z,6.47
2022-10-03T08:47:29.887Z,8.20
2022-10-03T08:50:44.553Z,7.30
2022-10-03T08:53:39.618Z,5.57
2022-10-03T08:56:24.348Z,5.87
2022-10-03T08:59:14.875Z,6.50
2022-10-03T09:02:29.532Z,7.77
2022-10-03T09:05:14.561Z,6.37
2022-10-03T09:08:08.931Z,6.40
2022-10-03T09:10:44.513Z,6.90
2022-10-03T09:13:29.778Z,6.00
2022-10-03T09:16:26.651Z,5.57
2022-10-03T09:18:56.340Z,5.33
2022-10-03T09:21:47.014Z,5.20
2022-10-03T09:24:51.458Z,5.60
2022-10-03T09:27:52.204Z,4.90
2022-10-03T09:30:56.709Z,4.60
2022-10-03T09:33:48.408Z,5.20
2022-10-03T09:36:30.693Z,4.17
2022-10-03T09:39:29.342Z,4.60
2022-10-03T09:42:17.565Z,5.30
2022-10-03T09:45:10.230Z,3.67
2022-10-03T09:47:51.915Z,3.90
2022-10-03T09:50:21.633Z,3.10
2022-10-03T09:53:08.525Z,2.63
2022-10-03T09:55:35.157Z,3.60
2022-10-03T09:58:11.125Z,3.50
2022-10-03T10:01:11.277Z,3.30
2022-10-03T10:03:46.825Z,3.10
2022-10-03T10:06:41.771Z,3.33
2022-10-03T10:09:39.635Z,3.23
2022-10-03T10:12:24.225Z,2.93
2022-10-03T10:15:18.667Z,2.60
2022-10-03T10:18:08.437Z,2.60
2022-10-03T10:21:03.472Z,2.60
2022-10-03T10:24:08.455Z,3.50
2022-10-03T10:26:54.044Z,4.17
2022-10-03T10:29:39.254Z,2.97
2022-10-03T10:32:21.898Z,2.73
2022-10-03T10:34:51.407Z,1.97
2022-10-03T10:37:54.987Z,2.43
2022-10-03T10:40:30.052Z,2.10
2022-10-03T10:43:27.903Z,1.67
2022-10-03T10:46:20.916Z,2.43
2022-10-03T10:49:06.008Z,2.20
2022-10-03T10:51:51.614Z,2.50
2022-10-03T10:54:42.894Z,3.47
2022-10-03T10:57:24.521Z,2.77
2022-10-03T11:00:16.125Z,2.37
2022-10-03T11:03:13.448Z,2.60
2022-10-03T11:05:58.833Z,2.10
2022-10-03T11:08:51.285Z,2.70
2022-10-03T11:11:46.070Z,2.10
2022-10-03T11:14:43.258Z,2.10
2022-10-03T11:17:39.538Z,2.10
2022-10-03T11:20:34.433Z,2.77
2022-10-03T11:23:16.221Z,2.20
2022-10-03T11:25:57.971Z,1.70
2022-10-03T11:28:46.672Z,2.10
2022-10-03T11:31:22.667Z,1.80
2022-10-03T11:34:10.926Z,2.03
2022-10-03T11:36:49.446Z,2.10
2022-10-03T11:39:42.991Z,2.80
2022-10-03T11:42:39.820Z,1.70
2022-10-03T11:45:20.205Z,1.73
2022-10-03T11:47:49.640Z,1.10
2022-10-03T11:50:29.199Z,1.40
2022-10-03T11:53:17.452Z,1.10
2022-10-03T11:56:05.538Z,1.37
2022-10-03T11:58:44.262Z,1.50
2022-10-03T12:01:39.697Z,2.53
2022-10-03T12:04:44.133Z,2.47
2022-10-03T12:07:47.753Z,1.80
2022-10-03T12:10:33.025Z,2.90
2022-10-03T12:13:04.386Z,2.63
2022-10-03T12:15:54.426Z,2.27
2022-10-03T12:18:28.332Z,2.70
2022-10-03T12:21:17.274Z,3.23
2022-10-03T12:24:01.107Z,2.87
2022-10-03T12:26:53.215Z,3.03
2022-10-03T12:29:23.613Z,2.10
2022-10-03T12:32:09.236Z,2.40
2022-10-03T12:34:55.151Z,2.63
2022-10-03T12:37:40.780Z,2.33
2022-10-03T12:40:13.432Z,1.70
2022-10-03T12:42:48.865Z,2.00
2022-10-03T12:45:24.637Z,1.90
2022-10-03T12:48:00.871Z,1.80
2022-10-03T12:50:46.099Z,2.20
2022-10-03T12:53:15.927Z,3.07
2022-10-03T12:56:04.421Z,2.33
2022-10-03T12:58:55.695Z,3.03
2022-10-03T13:01:53.019Z,2.13
2022-10-03T13:04:47.594Z,2.50
2022-10-03T13:07:28.667Z,2.33
2022-10-03T13:10:16.590Z,2.30
2022-10-03T13:12:51.041Z,2.30
2022-10-03T13:15:32.716Z,2.03
2022-10-03T13:18:14.148Z,2.03
2022-10-03T13:20:51.098Z,2.10
2022-10-03T13:23:47.105Z,1.97
2022-10-03T13:26:20.049Z,2.00
2022-10-03T13:29:11.621Z,1.57
2022-10-03T13:31:50.803Z,1.60
2022-10-03T13:34:27.521Z,1.70
2022-10-03T13:37:09.856Z,2.00
2022-10-03T13:39:52.118Z,1.50
2022-10-03T13:42:45.248Z,2.10
2022-10-03T13:45:25.455Z,1.40
2022-10-03T13:47:59.072Z,2.17
2022-10-03T13:50:36.753Z,2.30
2022-10-03T13:53:24.667Z,2.07
2022-10-03T13:55:58.475Z,2.47
2022-10-03T13:59:19.696Z,2.20
2022-10-03T14:02:04.088Z,1.47
2022-10-03T14:04:59.407Z,2.20
2022-10-03T14:07:35.739Z,2.07
2022-10-03T14:10:26.390Z,2.67
2022-10-03T14:13:19.751Z,1.63
2022-10-03T14:15:46.551Z,1.80
2022-10-03T14:18:21.978Z,1.60
2022-10-03T14:21:26.995Z,1.73
2022-10-03T14:24:03.120Z,1.30
2022-10-03T14:26:56.600Z,2.13
2022-10-03T14:29:44.488Z,2.07
2022-10-03T14:32:53.359Z,2.00
2022-10-03T14:35:38.937Z,2.03
2022-10-03T14:38:50.138Z,1.90
2022-10-03T14:41:41.930Z,1.83
2022-10-03T14:44:23.782Z,2.30
2022-10-03T14:47:07.367Z,1.70
2022-10-03T14:49:57.935Z,2.37
2022-10-03T14:52:43.261Z,1.90
2022-10-03T14:55:20.799Z,2.00
2022-10-03T14:58:10.186Z,1.80
2022-10-03T15:00:43.527Z,1.80
2022-10-03T15:03:21.709Z,2.07
2022-10-03T15:05:57.442Z,1.93
2022-10-03T15:08:31.474Z,3.50
2022-10-03T15:10:59.328Z,2.70
2022-10-03T15:13:28.905Z,2.23
2022-10-03T15:15:56.744Z,2.07
2022-10-03T15:18:24.503Z,1.73
2022-10-03T15:20:55.473Z,2.30
2022-10-03T15:23:37.248Z,2.00
2022-10-03T15:26:09.587Z,2.50
2022-10-03T15:29:01.041Z,2.27
2022-10-03T15:31:33.929Z,1.83
2022-10-03T15:34:04.798Z,1.90
2022-10-03T15:36:39.973Z,2.20
2022-10-03T15:39:26.876Z,3.20
2022-10-03T15:42:10.024Z,2.90
2022-10-03T15:44:39.929Z,2.37
2022-10-03T15:47:13.225Z,2.33
2022-10-03T15:50:01.145Z,2.37
2022-10-03T15:52:48.147Z,2.43
2022-10-03T15:55:44.926Z,2.20
2022-10-03T15:58:17.880Z,2.50
2022-10-03T16:00:53.116Z,2.73
2022-10-03T16:03:47.225Z,2.97
2022-10-03T16:06:47.625Z,2.73
2022-10-03T16:09:35.374Z,1.87
2022-10-03T16:12:16.813Z,2.53
2022-10-03T16:14:48.106Z,2.73
2022-10-03T16:17:21.763Z,2.87
2022-10-03T16:19:55.566Z,3.10
2022-10-03T16:22:36.352Z,3.50
2022-10-03T16:25:11.969Z,2.90
2022-10-03T16:27:45.714Z,3.30
2022-10-03T16:30:12.312Z,2.83
2022-10-03T16:33:03.859Z,3.83
2022-10-03T16:35:50.552Z,2.60
2022-10-03T16:38:38.850Z,3.47
2022-10-03T16:41:16.148Z,3.70
2022-10-03T16:44:14.497Z,3.60
2022-10-03T16:46:45.472Z,3.57
2022-10-03T16:49:44.045Z,3.13
2022-10-03T16:52:24.371Z,3.10
2022-10-03T16:55:00.718Z,3.30
2022-10-03T16:58:09.673Z,3.27
2022-10-03T17:01:15.089Z,3.00
2022-10-03T17:03:45.793Z,3.40
2022-10-03T17:06:29.501Z,3.70
2022-10-03T17:09:01.905Z,3.33
2022-10-03T17:11:31.545Z,3.70
2022-10-03T17:14:03.502Z,3.20
2022-10-03T17:16:47.746Z,3.70
2022-10-03T17:19:31.864Z,3.00
2022-10-03T17:22:11.795Z,3.50
2022-10-03T17:25:07.984Z,5.03
2022-10-03T17:27:41.442Z,6.50
2022-10-03T17:30:10.982Z,6.50
2022-10-03T17:32:42.092Z,43.30
2022-10-03T17:35:46.940Z,15.40
2022-10-03T17:38:47.829Z,27.13
2022-10-03T17:41:34.876Z,12.00
2022-10-03T17:44:33.704Z,8.20
2022-10-03T17:47:09.467Z,7.23
2022-10-03T17:49:38.822Z,5.47
2022-10-03T17:52:12.785Z,6.83
2022-10-03T17:54:40.530Z,4.97
2022-10-03T17:57:34.549Z,4.30
2022-10-03T18:00:05.397Z,3.50
2022-10-03T18:02:50.719Z,3.40
2022-10-03T18:05:20.629Z,3.93
2022-10-03T18:07:52.599Z,3.80
2022-10-03T18:10:24.255Z,6.77
2022-10-03T18:12:54.126Z,14.40
2022-10-03T18:15:35.520Z,4.50
2022-10-03T18:18:25.251Z,4.73
2022-10-03T18:21:24.861Z,4.10
2022-10-03T18:23:55.643Z,4.47
2022-10-03T18:26:56.839Z,3.30
2022-10-03T18:29:29.263Z,3.63
2022-10-03T18:32:04.854Z,3.50
2022-10-03T18:34:36.013Z,3.50
2022-10-03T18:37:27.289Z,3.50
2022-10-03T18:39:56.583Z,3.40
2022-10-03T18:42:28.138Z,3.50
2022-10-03T18:44:57.355Z,3.53
2022-10-03T18:47:37.551Z,4.40
2022-10-03T18:50:22.097Z,4.47
2022-10-03T18:53:16.429Z,3.83
2022-10-03T18:56:00.653Z,6.13
2022-10-03T18:58:37.238Z,6.73
2022-10-03T19:01:12.949Z,7.10
2022-10-03T19:04:00.883Z,7.53
2022-10-03T19:06:41.242Z,7.20
2022-10-03T19:09:19.530Z,6.17
2022-10-03T19:11:54.430Z,5.90
2022-10-03T19:14:47.716Z,6.70
2022-10-03T19:17:30.875Z,6.63
2022-10-03T19:20:15.082Z,5.70
2022-10-03T19:22:55.378Z,6.17
2022-10-03T19:25:25.072Z,6.20
2022-10-03T19:27:58.510Z,6.10
2022-10-03T19:30:27.549Z,6.13
2022-10-03T19:32:59.683Z,6.80
2022-10-03T19:35:28.413Z,5.90
2022-10-03T19:38:13.323Z,5.83
2022-10-03T19:40:45.680Z,6.40
2022-10-03T19:43:41.719Z,5.67
2022-10-03T19:46:22.515Z,6.50
2022-10-03T19:49:20.040Z,6.20
2022-10-03T19:51:48.692Z,5.70
2022-10-03T19:54:43.508Z,6.07
2022-10-03T19:57:20.113Z,5.50
2022-10-03T19:59:59.874Z,7.00
2022-10-03T20:02:29.183Z,5.43
2022-10-03T20:04:57.765Z,6.07
2022-10-03T20:07:51.338Z,5.97
2022-10-03T20:10:30.694Z,6.13
2022-10-03T20:13:03.498Z,6.27
2022-10-03T20:15:41.805Z,6.20
2022-10-03T20:18:12.540Z,5.93
2022-10-03T20:20:40.999Z,4.87
2022-10-03T20:23:13.931Z,5.50
2022-10-03T20:25:46.342Z,5.37
2022-10-03T20:28:33.157Z,5.70
2022-10-03T20:30:59.984Z,6.13
2022-10-03T20:33:37.064Z,5.40
2022-10-03T20:36:24.782Z,5.03
2022-10-03T20:38:54.418Z,4.57
2022-10-03T20:41:51.659Z,4.83
2022-10-03T20:44:59.233Z,5.27
2022-10-03T20:47:52.170Z,4.80
2022-10-03T20:50:37.135Z,4.93
2022-10-03T20:53:25.062Z,4.73
2022-10-03T20:56:06.983Z,5.30
2022-10-03T20:58:55.464Z,5.50
2022-10-03T21:01:29.704Z,4.60
2022-10-03T21:04:26.458Z,5.10
2022-10-03T21:07:01.878Z,4.90
2022-10-03T21:09:47.825Z,5.70
2022-10-03T21:12:22.855Z,5.43
2022-10-03T21:14:57.773Z,5.70
2022-10-03T21:17:27.681Z,5.60
2022-10-03T21:20:04.504Z,6.63
2022-10-03T21:22:32.595Z,6.30
2022-10-03T21:25:26.823Z,5.60
2022-10-03T21:27:55.685Z,5.40
2022-10-03T21:30:39.311Z,5.47
2022-10-03T21:33:19.078Z,5.50
2022-10-03T21:35:49.155Z,7.13
2022-10-03T21:38:27.304Z,5.53
2022-10-03T21:41:25.703Z,5.43
2022-10-03T21:43:57.701Z,6.20
2022-10-03T21:46:44.756Z,7.30
2022-10-03T21:49:49.581Z,7.83
2022-10-03T21:52:26.211Z,7.97
2022-10-03T21:55:01.810Z,6.67
2022-10-03T21:57:43.754Z,7.20
2022-10-03T22:00:19.264Z,8.40
2022-10-03T22:02:58.540Z,8.47
2022-10-03T22:05:34.075Z,7.77
2022-10-03T22:08:20.338Z,8.10
2022-10-03T22:11:02.619Z,7.43
2022-10-03T22:13:34.482Z,7.40
2022-10-03T22:16:09.161Z,6.37
2022-10-03T22:19:00.609Z,5.50
2022-10-03T22:21:30.354Z,6.50
2022-10-03T22:24:21.268Z,5.83
2022-10-03T22:27:04.135Z,5.57
2022-10-03T22:29:53.380Z,6.57
2022-10-03T22:32:30.284Z,6.10
2022-10-03T22:35:06.648Z,5.23
2022-10-03T22:37:33.756Z,5.93
2022-10-03T22:40:02.073Z,5.97
2022-10-03T22:42:34.061Z,6.23
2022-10-03T22:45:03.064Z,7.00
2022-10-03T22:47:33.138Z,5.63
2022-10-03T22:50:10.405Z,6.63
2022-10-03T22:52:42.129Z,6.10
2022-10-03T22:55:13.825Z,5.37
2022-10-03T22:57:45.002Z,6.70
2022-10-03T23:00:17.482Z,5.10
2022-10-03T23:03:06.282Z,6.00
2022-10-03T23:05:45.314Z,5.80
2022-10-03T23:08:35.072Z,4.93
2022-10-03T23:11:17.265Z,5.07
2022-10-03T23:13:44.988Z,5.50
2022-10-03T23:16:39.590Z,6.10
2022-10-03T23:19:21.382Z,4.90
2022-10-03T23:21:50.476Z,5.00
2022-10-03T23:24:43.791Z,6.00
2022-10-03T23:27:19.752Z,5.67
2022-10-03T23:30:12.284Z,6.60
2022-10-03T23:32:48.109Z,5.80
2022-10-03T23:35:41.377Z,5.70
2022-10-03T23:38:33.246Z,5.57
2022-10-03T23:41:21.048Z,5.03
2022-10-03T23:43:56.030Z,5.23
2022-10-03T23:46:25.908Z,4.50
2022-10-03T23:48:56.381Z,4.10
2022-10-03T23:51:35.877Z,4.50
2022-10-03T23:54:06.130Z,5.07
2022-10-03T23:56:41.364Z,4.37
2022-10-03T23:59:16.573Z,4.53
